SLRI

Capitán Av. Selin Zeitun Lopez Airport

Airport
ICAO code
SLRI
IATA Code
RIB
Summary
ICAO Region
CARSAM
ICAO Territory
Location

Riberalta, El Beni

Serving
Riberalta
Elevation
462 ft
Coordinates
11° 0' 33" S , 66° 4' 26" W
KCC
Metar
Observation
SLRI 051500Z 36012KT 8000 FEW017 BKN200 33/23 Q1011
Station
Riberalta
Date/Time
2022-10-05 15:00:00
Wind direction
360°
Wind speed
12 kts
Lowest cloud amount
few clouds
Temperature
33°C
Dew point
23°C
Humidity
55%
QNH
1011 hPa
Weather condition
n/a

Airport serving Riberalta, a port city on the Beni River in the Beni Department of Bolivia. The airport is in the western section of the city, near the confluence of the Beni and Madre de Dios Rivers.

Climatology

Tropical Savanna climate (Köppen climate classification Aw).

Runways

Designator Length Width Surface Rops
13/31 1800 0 UNK No/No

Airport map

Aerial View

SKYbrary Partners:

Safety knowledge contributed by: